createdAt,value
2022-08-01T00:00:11.400Z,74.18
2022-08-01T00:02:39.860Z,74.22
2022-08-01T00:05:09.213Z,74.04
2022-08-01T00:07:37.275Z,74.24
2022-08-01T00:10:05.716Z,75.44
2022-08-01T00:12:33.802Z,75.22
2022-08-01T00:15:03.225Z,78.83
2022-08-01T00:17:31.295Z,77.99
2022-08-01T00:19:59.385Z,77.54
2022-08-01T00:22:27.486Z,79.31
2022-08-01T00:24:55.628Z,78.76
2022-08-01T00:27:23.692Z,79.57
2022-08-01T00:30:12.033Z,80.59
2022-08-01T00:32:43.790Z,81.87
2022-08-01T00:35:11.874Z,81.51
2022-08-01T00:37:40.319Z,81.78
2022-08-01T00:40:08.923Z,84.11
2022-08-01T00:42:41.552Z,81.89
2022-08-01T00:45:11.799Z,83.29
2022-08-01T00:47:39.892Z,84.14
2022-08-01T00:50:10.071Z,83.49
2022-08-01T00:52:38.854Z,83.53
2022-08-01T00:55:07.189Z,81.85
2022-08-01T00:58:01.494Z,82.33
2022-08-01T01:00:27.511Z,85.34
2022-08-01T01:02:55.729Z,83.85
2022-08-01T01:05:25.117Z,86.28
2022-08-01T01:07:58.405Z,83.84
2022-08-01T01:10:32.377Z,85.39
2022-08-01T01:13:04.162Z,82.87
2022-08-01T01:15:37.124Z,79.47
2022-08-01T01:18:06.121Z,80.50
2022-08-01T01:20:38.048Z,80.40
2022-08-01T01:23:14.339Z,82.66
2022-08-01T01:25:47.933Z,83.50
2022-08-01T01:28:19.043Z,81.99
2022-08-01T01:30:50.939Z,82.10
2022-08-01T01:33:19.597Z,82.32
2022-08-01T01:35:49.761Z,83.35
2022-08-01T01:38:20.416Z,85.95
2022-08-01T01:40:49.753Z,86.72
2022-08-01T01:43:18.662Z,87.75
2022-08-01T01:45:49.274Z,90.70
2022-08-01T01:48:22.236Z,92.07
2022-08-01T01:50:51.388Z,89.88
2022-08-01T01:53:21.427Z,91.04
2022-08-01T01:55:50.917Z,91.47
2022-08-01T01:58:22.099Z,92.71
2022-08-01T02:00:53.403Z,91.07
2022-08-01T02:03:22.772Z,91.64
2022-08-01T02:05:51.415Z,92.09
2022-08-01T02:08:22.168Z,90.92
2022-08-01T02:11:06.428Z,92.56
2022-08-01T02:13:36.300Z,94.57
2022-08-01T02:16:07.880Z,93.15
2022-08-01T02:18:36.067Z,97.08
2022-08-01T02:21:06.100Z,99.42
2022-08-01T02:23:35.564Z,98.14
2022-08-01T02:26:10.299Z,100.00
2022-08-01T02:28:45.402Z,100.00
2022-08-01T02:31:16.275Z,100.00
2022-08-01T02:33:46.488Z,100.00
2022-08-01T02:36:30.094Z,100.00
2022-08-01T02:39:02.664Z,100.00
2022-08-01T02:41:32.592Z,100.00
2022-08-01T02:44:01.768Z,100.00
2022-08-01T02:46:33.525Z,100.00
2022-08-01T02:49:02.978Z,100.00
2022-08-01T02:51:35.158Z,100.00
2022-08-01T02:54:04.456Z,100.00
2022-08-01T02:56:36.625Z,100.00
2022-08-01T02:59:06.268Z,100.00
2022-08-01T03:01:37.756Z,100.00
2022-08-01T03:04:06.811Z,100.00
2022-08-01T03:06:37.958Z,100.00
2022-08-01T03:09:08.755Z,100.00
2022-08-01T03:11:38.340Z,100.00
2022-08-01T03:14:07.951Z,100.00
2022-08-01T03:16:39.306Z,100.00
2022-08-01T03:19:09.193Z,100.00
2022-08-01T03:21:38.166Z,100.00
2022-08-01T03:24:10.098Z,100.00
2022-08-01T03:26:38.886Z,100.00
2022-08-01T03:29:08.342Z,100.00
2022-08-01T03:31:39.088Z,100.00
2022-08-01T03:34:07.817Z,100.00
2022-08-01T03:36:39.637Z,100.00
2022-08-01T03:39:10.542Z,100.00
2022-08-01T03:41:42.023Z,100.00
2022-08-01T03:44:20.227Z,100.00
2022-08-01T03:46:50.813Z,100.00
2022-08-01T03:49:20.492Z,100.00
2022-08-01T03:51:50.373Z,100.00
2022-08-01T03:54:22.072Z,100.00
2022-08-01T03:56:52.310Z,100.00
2022-08-01T03:59:21.100Z,100.00
2022-08-01T04:01:50.804Z,100.00
2022-08-01T04:04:19.119Z,100.00
2022-08-01T04:06:47.179Z,100.00
2022-08-01T04:09:15.382Z,100.00
2022-08-01T04:11:43.438Z,100.00
2022-08-01T04:14:11.508Z,100.00
2022-08-01T04:16:39.993Z,100.00
2022-08-01T04:19:09.550Z,100.00
2022-08-01T04:21:37.974Z,100.00
2022-08-01T04:24:09.586Z,100.00
2022-08-01T04:26:39.714Z,100.00
2022-08-01T04:29:08.716Z,100.00
2022-08-01T04:31:37.937Z,100.00
2022-08-01T04:34:07.688Z,100.00
2022-08-01T04:36:39.047Z,100.00
2022-08-01T04:39:07.947Z,100.00
2022-08-01T04:41:39.340Z,100.00
2022-08-01T04:44:07.892Z,100.00
2022-08-01T04:46:37.805Z,100.00
2022-08-01T04:49:07.997Z,100.00
2022-08-01T04:51:37.478Z,100.00
2022-08-01T04:54:05.723Z,100.00
2022-08-01T04:56:35.024Z,100.00
2022-08-01T04:59:20.516Z,100.00
2022-08-01T05:01:51.702Z,100.00
2022-08-01T05:04:20.311Z,100.00
2022-08-01T05:06:49.758Z,100.00
2022-08-01T05:09:17.939Z,100.00
2022-08-01T05:11:46.033Z,100.00
2022-08-01T05:14:14.156Z,100.00
2022-08-01T05:16:42.747Z,100.00
2022-08-01T05:19:13.087Z,100.00
2022-08-01T05:21:41.189Z,100.00
2022-08-01T05:24:10.616Z,100.00
2022-08-01T05:26:38.700Z,100.00
2022-08-01T05:29:09.316Z,100.00
2022-08-01T05:31:37.383Z,100.00
2022-08-01T05:34:07.827Z,100.00
2022-08-01T05:36:43.232Z,100.00
2022-08-01T05:39:12.772Z,100.00
2022-08-01T05:41:40.882Z,100.00
2022-08-01T05:44:09.043Z,100.00
2022-08-01T05:46:37.143Z,93.69
2022-08-01T05:49:06.309Z,78.20
2022-08-01T05:51:34.567Z,64.75
2022-08-01T05:54:03.491Z,70.29
2022-08-01T05:56:33.250Z,58.71
2022-08-01T05:59:03.601Z,49.69
2022-08-01T06:01:31.698Z,51.27
2022-08-01T06:03:59.937Z,49.88
2022-08-01T06:06:28.011Z,49.84
2022-08-01T06:08:56.090Z,51.95
2022-08-01T06:11:24.155Z,50.60
2022-08-01T06:13:54.640Z,46.70
2022-08-01T06:16:22.727Z,45.13
2022-08-01T06:18:54.963Z,43.17
2022-08-01T06:21:25.047Z,45.48
2022-08-01T06:23:55.711Z,42.24
2022-08-01T06:26:24.148Z,42.46
2022-08-01T06:28:53.960Z,42.67
2022-08-01T06:31:22.318Z,40.70
2022-08-01T06:33:50.675Z,41.68
2022-08-01T06:36:19.144Z,42.81
2022-08-01T06:38:47.508Z,58.33
2022-08-01T06:41:15.696Z,62.86
2022-08-01T06:43:43.760Z,71.36
2022-08-01T06:46:13.171Z,72.44
2022-08-01T06:48:43.638Z,71.69
2022-08-01T06:51:14.644Z,71.45
2022-08-01T06:53:43.906Z,79.68
2022-08-01T06:56:13.393Z,78.16
2022-08-01T06:58:41.458Z,79.61
2022-08-01T07:01:09.758Z,78.04
2022-08-01T07:03:53.953Z,77.45
2022-08-01T07:06:24.143Z,80.74
2022-08-01T07:08:52.425Z,79.53
2022-08-01T07:11:20.594Z,81.33
2022-08-01T07:13:48.932Z,81.92
2022-08-01T07:16:17.511Z,80.35
2022-08-01T07:18:49.289Z,78.33
2022-08-01T07:21:39.377Z,79.77
2022-08-01T07:24:12.889Z,76.80
2022-08-01T07:26:52.639Z,79.61
2022-08-01T07:29:23.132Z,81.09
2022-08-01T07:31:51.257Z,80.67
2022-08-01T07:34:20.711Z,80.86
2022-08-01T07:36:48.781Z,77.50
2022-08-01T07:39:16.879Z,73.23
2022-08-01T07:42:05.973Z,76.23
2022-08-01T07:44:33.061Z,77.50
2022-08-01T07:47:01.203Z,76.24
2022-08-01T07:49:32.797Z,73.42
2022-08-01T07:52:04.392Z,76.26
2022-08-01T07:54:33.125Z,78.48
2022-08-01T07:57:02.389Z,78.92
2022-08-01T07:59:30.508Z,81.99
2022-08-01T08:02:00.735Z,81.35
2022-08-01T08:04:30.604Z,79.69
2022-08-01T08:06:58.740Z,79.14
2022-08-01T08:09:27.251Z,77.30
2022-08-01T08:11:55.324Z,79.85
2022-08-01T08:14:32.406Z,81.07
2022-08-01T08:17:03.342Z,83.13
2022-08-01T08:19:38.657Z,82.11
2022-08-01T08:22:07.933Z,81.44
2022-08-01T08:24:36.577Z,79.19
2022-08-01T08:27:13.813Z,81.09
2022-08-01T08:29:42.741Z,79.43
2022-08-01T08:32:11.301Z,77.66
2022-08-01T08:34:40.889Z,78.22
2022-08-01T08:37:09.684Z,82.85
2022-08-01T08:39:41.750Z,80.71
2022-08-01T08:42:11.109Z,80.26
2022-08-01T08:44:39.962Z,78.56
2022-08-01T08:47:17.332Z,77.31
2022-08-01T08:49:49.848Z,77.10
2022-08-01T08:52:19.446Z,77.75
2022-08-01T08:54:47.948Z,73.30
2022-08-01T08:57:16.457Z,69.93
2022-08-01T08:59:45.001Z,71.75
2022-08-01T09:02:14.096Z,73.36
2022-08-01T09:04:42.600Z,73.05
2022-08-01T09:07:12.741Z,71.59
2022-08-01T09:09:41.683Z,75.62
2022-08-01T09:12:12.397Z,75.47
2022-08-01T09:14:46.648Z,72.10
2022-08-01T09:17:14.752Z,73.35
2022-08-01T09:19:44.260Z,75.29
2022-08-01T09:22:14.912Z,68.29
2022-08-01T09:24:43.595Z,68.82
2022-08-01T09:27:19.803Z,68.40
2022-08-01T09:30:00.767Z,71.23
2022-08-01T09:32:35.298Z,72.32
2022-08-01T09:35:19.539Z,71.56
2022-08-01T09:37:49.007Z,71.38
2022-08-01T09:40:17.149Z,70.69
2022-08-01T09:42:49.690Z,69.44
2022-08-01T09:45:41.938Z,64.08
2022-08-01T09:48:14.098Z,66.14
2022-08-01T09:50:43.830Z,65.37
2022-08-01T09:53:30.430Z,66.29
2022-08-01T09:56:10.325Z,63.83
2022-08-01T09:58:56.221Z,64.40
2022-08-01T10:01:27.146Z,63.55
2022-08-01T10:04:09.835Z,64.68
2022-08-01T10:06:39.244Z,61.49
2022-08-01T10:09:08.711Z,61.01
2022-08-01T10:11:40.046Z,61.66
2022-08-01T10:14:08.742Z,63.77
2022-08-01T10:16:38.616Z,60.28
2022-08-01T10:19:11.288Z,61.27
2022-08-01T10:21:57.927Z,57.71
2022-08-01T10:24:30.009Z,57.54
2022-08-01T10:27:05.811Z,55.07
2022-08-01T10:29:45.990Z,57.69
2022-08-01T10:32:16.917Z,57.69
2022-08-01T10:34:45.401Z,59.56
2022-08-01T10:37:14.877Z,61.17
2022-08-01T10:39:46.850Z,60.85
2022-08-01T10:42:15.582Z,63.77
2022-08-01T10:44:47.212Z,65.22
2022-08-01T10:47:23.323Z,63.00
2022-08-01T10:49:59.334Z,61.11
2022-08-01T10:52:28.391Z,60.75
2022-08-01T10:55:05.063Z,60.10
2022-08-01T10:57:43.529Z,58.55
2022-08-01T11:00:21.472Z,60.38
2022-08-01T11:02:59.150Z,58.53
2022-08-01T11:05:27.376Z,56.90
2022-08-01T11:07:56.744Z,56.61
2022-08-01T11:10:33.088Z,54.15
2022-08-01T11:13:04.475Z,53.21
2022-08-01T11:15:32.610Z,52.43
2022-08-01T11:18:02.034Z,54.39
2022-08-01T11:20:32.189Z,56.47
2022-08-01T11:23:36.261Z,55.24
2022-08-01T11:26:29.104Z,55.97
2022-08-01T11:29:21.143Z,57.06
2022-08-01T11:31:51.095Z,57.56
2022-08-01T11:34:19.739Z,59.74
2022-08-01T11:37:09.815Z,57.59
2022-08-01T11:39:39.048Z,57.18
2022-08-01T11:42:22.571Z,56.66
2022-08-01T11:44:52.817Z,54.76
2022-08-01T11:47:40.946Z,56.35
2022-08-01T11:50:32.034Z,56.58
2022-08-01T11:53:00.845Z,58.06
2022-08-01T11:55:31.544Z,58.24
2022-08-01T11:58:01.357Z,58.29
2022-08-01T12:00:31.714Z,56.17
2022-08-01T12:03:00.672Z,57.63
2022-08-01T12:05:31.377Z,55.70
2022-08-01T12:07:59.706Z,57.70
2022-08-01T12:10:29.350Z,54.33
2022-08-01T12:13:01.064Z,53.31
2022-08-01T12:15:33.647Z,52.95
2022-08-01T12:18:03.423Z,52.86
2022-08-01T12:20:33.196Z,54.73
2022-08-01T12:23:02.138Z,53.11
2022-08-01T12:25:30.551Z,53.40
2022-08-01T12:28:02.084Z,52.11
2022-08-01T12:30:31.756Z,53.70
2022-08-01T12:33:01.253Z,55.11
2022-08-01T12:35:30.193Z,53.87
2022-08-01T12:37:59.043Z,54.33
2022-08-01T12:40:28.151Z,51.49
2022-08-01T12:42:57.337Z,53.13
2022-08-01T12:45:26.848Z,52.70
2022-08-01T12:47:55.914Z,50.61
2022-08-01T12:50:29.024Z,52.56
2022-08-01T12:52:57.816Z,51.94
2022-08-01T12:55:34.635Z,52.57
2022-08-01T12:58:06.853Z,52.82
2022-08-01T13:00:35.504Z,53.47
2022-08-01T13:03:04.839Z,52.15
2022-08-01T13:05:44.160Z,52.08
2022-08-01T13:08:13.095Z,50.64
2022-08-01T13:10:41.532Z,51.38
2022-08-01T13:13:10.196Z,51.32
2022-08-01T13:15:41.807Z,49.39
2022-08-01T13:18:26.035Z,50.77
2022-08-01T13:26:41.849Z,51.91
2022-08-01T13:29:11.565Z,49.55
2022-08-01T13:31:40.513Z,48.53
2022-08-01T13:34:11.516Z,48.15
2022-08-01T13:36:40.693Z,50.15
2022-08-01T13:39:29.334Z,49.86
2022-08-01T13:41:58.765Z,49.55
2022-08-01T13:44:26.825Z,50.48
2022-08-01T13:46:57.284Z,49.23
2022-08-01T13:49:25.565Z,49.51
2022-08-01T13:52:07.577Z,49.65
2022-08-01T13:54:36.999Z,50.23
2022-08-01T13:57:06.828Z,49.47
2022-08-01T13:59:35.269Z,48.36
2022-08-01T14:02:03.918Z,47.87
2022-08-01T14:04:32.196Z,48.98
2022-08-01T14:07:03.076Z,47.88
2022-08-01T14:09:35.300Z,47.35
2022-08-01T14:12:14.754Z,48.17
2022-08-01T14:14:42.855Z,48.38
2022-08-01T14:17:13.745Z,49.43
2022-08-01T14:19:46.230Z,49.57
2022-08-01T14:22:14.562Z,49.19
2022-08-01T14:24:42.758Z,49.42
2022-08-01T14:27:11.178Z,46.72
2022-08-01T14:30:03.154Z,46.02
2022-08-01T14:32:29.100Z,46.81
2022-08-01T14:34:57.658Z,47.05
2022-08-01T14:37:31.720Z,45.56
2022-08-01T14:40:05.610Z,47.13
2022-08-01T14:42:35.674Z,47.12
2022-08-01T14:45:09.285Z,46.74
2022-08-01T14:47:38.032Z,47.42
2022-08-01T14:50:07.308Z,46.49
2022-08-01T14:52:35.789Z,48.13
2022-08-01T14:55:04.164Z,46.71
2022-08-01T14:57:34.812Z,45.55
2022-08-01T15:00:03.053Z,44.56
2022-08-01T15:02:32.464Z,44.49
2022-08-01T15:05:00.597Z,45.52
2022-08-01T15:07:28.934Z,46.27
2022-08-01T15:09:57.164Z,44.68
2022-08-01T15:12:25.264Z,43.51
2022-08-01T15:14:53.443Z,43.94
2022-08-01T15:17:22.709Z,45.52
2022-08-01T15:19:54.603Z,46.31
2022-08-01T15:22:23.257Z,46.14
2022-08-01T15:24:56.849Z,46.60
2022-08-01T15:27:25.741Z,47.00
2022-08-01T15:29:54.402Z,46.94
2022-08-01T15:32:22.542Z,46.98
2022-08-01T15:34:50.713Z,46.68
2022-08-01T15:37:20.256Z,46.83
2022-08-01T15:39:48.437Z,47.79
2022-08-01T15:42:20.207Z,46.76
2022-08-01T15:44:53.795Z,47.41
2022-08-01T15:47:22.593Z,46.65
2022-08-01T15:49:56.727Z,46.58
2022-08-01T15:52:30.773Z,47.59
2022-08-01T15:55:02.324Z,48.22
2022-08-01T15:57:32.804Z,48.58
2022-08-01T16:00:00.885Z,48.52
2022-08-01T16:02:28.948Z,49.00
2022-08-01T16:04:57.006Z,48.88
2022-08-01T16:07:27.024Z,48.73
2022-08-01T16:09:55.117Z,49.00
2022-08-01T16:12:23.179Z,48.85
2022-08-01T16:14:51.217Z,48.52
2022-08-01T16:17:19.249Z,49.27
2022-08-01T16:19:47.332Z,48.82
2022-08-01T16:22:15.367Z,48.77
2022-08-01T16:24:44.824Z,49.87
2022-08-01T16:27:12.910Z,49.66
2022-08-01T16:29:41.025Z,50.50
2022-08-01T16:32:30.100Z,49.51
2022-08-01T16:34:59.316Z,49.62
2022-08-01T16:37:29.801Z,49.87
2022-08-01T16:39:59.216Z,50.46
2022-08-01T16:42:29.664Z,50.99
2022-08-01T16:44:59.391Z,50.80
2022-08-01T16:47:27.699Z,51.17
2022-08-01T16:49:55.829Z,51.13
2022-08-01T16:52:28.768Z,52.23
2022-08-01T16:54:58.005Z,53.11
2022-08-01T16:57:27.391Z,52.82
2022-08-01T16:59:55.516Z,50.70
2022-08-01T17:02:24.509Z,50.63
2022-08-01T17:04:52.686Z,51.49
2022-08-01T17:07:20.805Z,52.08
2022-08-01T17:09:48.875Z,52.42
2022-08-01T17:12:21.941Z,53.62
2022-08-01T17:14:52.012Z,53.31
2022-08-01T17:17:20.253Z,53.70
2022-08-01T17:19:48.355Z,53.07
2022-08-01T17:22:16.516Z,49.56
2022-08-01T17:24:44.610Z,53.56
2022-08-01T17:27:13.767Z,54.21
2022-08-01T17:29:43.897Z,54.94
2022-08-01T17:32:14.444Z,55.78
2022-08-01T17:34:42.619Z,56.69
2022-08-01T17:37:10.971Z,58.01
2022-08-01T17:39:40.036Z,58.34
2022-08-01T17:42:08.747Z,57.92
2022-08-01T17:44:37.179Z,58.05
2022-08-01T17:47:06.268Z,58.82
2022-08-01T17:52:29.480Z,60.73
2022-08-01T17:55:00.639Z,59.92
2022-08-01T17:57:28.985Z,59.06
2022-08-01T17:59:57.922Z,59.69
2022-08-01T18:02:26.505Z,59.42
2022-08-01T18:04:56.108Z,58.96
2022-08-01T18:08:00.592Z,59.36
2022-08-01T18:10:12.382Z,58.39
2022-08-01T18:12:40.512Z,58.42
2022-08-01T18:15:08.995Z,58.17
2022-08-01T18:17:37.267Z,59.05
2022-08-01T18:20:08.420Z,58.50
2022-08-01T18:22:36.966Z,58.67
2022-08-01T18:25:08.700Z,58.75
2022-08-01T18:28:29.587Z,59.32
2022-08-01T18:30:27.924Z,58.89
2022-08-01T18:32:56.061Z,60.05
2022-08-01T18:35:51.702Z,60.43
2022-08-01T18:38:14.108Z,60.09
2022-08-01T18:40:42.720Z,60.14
2022-08-01T18:43:10.799Z,61.05
2022-08-01T18:45:42.749Z,61.39
2022-08-01T18:48:11.438Z,61.50
2022-08-01T18:50:40.916Z,61.29
2022-08-01T18:53:09.055Z,61.47
2022-08-01T18:55:37.197Z,62.32
2022-08-01T18:58:05.365Z,62.72
2022-08-01T19:00:33.474Z,62.91
2022-08-01T19:03:01.581Z,62.87
2022-08-01T19:05:31.264Z,62.62
2022-08-01T19:08:07.232Z,63.39
2022-08-01T19:10:35.971Z,63.52
2022-08-01T19:13:04.102Z,64.15
2022-08-01T19:15:34.656Z,63.90
2022-08-01T19:18:03.085Z,64.08
2022-08-01T19:20:31.337Z,64.13
2022-08-01T19:22:59.677Z,64.26
2022-08-01T19:25:29.292Z,64.43
2022-08-01T19:27:58.564Z,65.19
2022-08-01T19:30:27.252Z,65.98
2022-08-01T19:32:56.190Z,66.52
2022-08-01T19:35:25.352Z,66.87
2022-08-01T19:37:54.169Z,67.18
2022-08-01T19:40:26.164Z,68.19
2022-08-01T19:42:57.739Z,67.77
2022-08-01T19:45:29.177Z,67.70
2022-08-01T19:48:00.493Z,69.70
2022-08-01T19:50:29.800Z,69.03
2022-08-01T19:52:58.848Z,68.93
2022-08-01T19:55:28.036Z,69.70
2022-08-01T19:58:26.002Z,69.20
2022-08-01T20:00:46.590Z,71.31
2022-08-01T20:03:15.941Z,73.29
2022-08-01T20:05:44.500Z,73.38
2022-08-01T20:08:13.448Z,72.25
2022-08-01T20:10:41.813Z,73.73
2022-08-01T20:13:13.493Z,73.43
2022-08-01T20:15:44.026Z,73.25
2022-08-01T20:18:12.154Z,72.87
2022-08-01T20:20:40.334Z,72.96
2022-08-01T20:23:10.382Z,71.63
2022-08-01T20:25:42.074Z,77.17
2022-08-01T20:28:10.491Z,76.20
2022-08-01T20:30:40.684Z,80.46
2022-08-01T20:33:09.586Z,78.17
2022-08-01T20:35:52.061Z,78.57
2022-08-01T20:38:23.143Z,78.31
2022-08-01T20:40:52.974Z,79.21
2022-08-01T20:43:21.844Z,78.17
2022-08-01T20:45:52.443Z,79.10
2022-08-01T20:48:21.295Z,78.18
2022-08-01T20:51:07.396Z,77.26
2022-08-01T20:53:40.590Z,80.16
2022-08-01T20:56:11.199Z,84.22
2022-08-01T20:58:46.165Z,82.20
2022-08-01T21:01:18.732Z,82.55
2022-08-01T21:03:52.250Z,82.08
2022-08-01T21:06:23.936Z,78.74
2022-08-01T21:08:55.644Z,77.26
2022-08-01T21:11:26.487Z,78.50
2022-08-01T21:13:58.992Z,79.05
2022-08-01T21:16:32.454Z,76.09
2022-08-01T21:19:22.097Z,77.06
2022-08-01T21:21:52.086Z,76.46
2022-08-01T21:24:23.530Z,79.05
2022-08-01T21:26:52.701Z,80.20
2022-08-01T21:29:22.369Z,81.11
2022-08-01T21:32:11.384Z,80.60
2022-08-01T21:34:39.853Z,80.92
2022-08-01T21:37:10.812Z,80.22
2022-08-01T21:39:39.460Z,80.58
2022-08-01T21:42:15.188Z,81.73
2022-08-01T21:44:47.428Z,81.41
2022-08-01T21:47:16.959Z,82.30
2022-08-01T21:49:45.081Z,82.36
2022-08-01T21:52:15.307Z,84.30
2022-08-01T21:54:50.614Z,82.97
2022-08-01T21:57:25.775Z,83.40
2022-08-01T22:02:40.866Z,81.76
2022-08-01T22:05:10.087Z,83.30
2022-08-01T22:07:53.434Z,85.26
2022-08-01T22:10:21.797Z,86.25
2022-08-01T22:12:50.123Z,90.63
2022-08-01T22:15:20.059Z,91.86
2022-08-01T22:17:51.592Z,87.09
2022-08-01T22:20:21.024Z,85.65
2022-08-01T22:22:52.563Z,87.41
2022-08-01T22:25:20.962Z,87.27
2022-08-01T22:28:05.788Z,88.23
2022-08-01T22:30:41.404Z,89.23
2022-08-01T22:33:15.996Z,90.86
2022-08-01T22:35:46.490Z,92.72
2022-08-01T22:38:17.697Z,93.66
2022-08-01T22:40:46.984Z,93.91
2022-08-01T22:43:22.457Z,92.33
2022-08-01T22:45:55.352Z,94.50
2022-08-01T22:48:26.413Z,93.95
2022-08-01T22:50:57.741Z,96.86
2022-08-01T22:53:31.831Z,96.14
2022-08-01T22:56:02.369Z,96.89
2022-08-01T22:58:31.634Z,97.45
2022-08-01T23:01:01.187Z,100.00
2022-08-01T23:03:33.583Z,100.00
2022-08-01T23:06:03.979Z,100.00
2022-08-01T23:08:33.011Z,100.00
2022-08-01T23:11:02.064Z,100.00
2022-08-01T23:13:30.554Z,100.00
2022-08-01T23:15:58.682Z,100.00
2022-08-01T23:18:27.520Z,100.00
2022-08-01T23:20:58.705Z,100.00
2022-08-01T23:23:31.446Z,100.00
2022-08-01T23:26:00.405Z,100.00
2022-08-01T23:28:29.099Z,100.00
2022-08-01T23:30:57.351Z,100.00
2022-08-01T23:33:25.392Z,100.00
2022-08-01T23:35:57.043Z,100.00
2022-08-01T23:38:25.089Z,100.00
2022-08-01T23:40:55.834Z,100.00
2022-08-01T23:43:23.941Z,100.00
2022-08-01T23:46:03.495Z,100.00
2022-08-01T23:48:34.268Z,100.00
2022-08-01T23:51:04.236Z,100.00
2022-08-01T23:53:33.664Z,100.00
2022-08-01T23:56:04.226Z,100.00
2022-08-01T23:58:33.351Z,100.00
